sensor_id;sensor_type;location;lat;lon;timestamp;temperature;humidity
43414;DHT22;29013;49.676;8.606;2023-09-30T00:04:10;18.3;99.9
43414;DHT22;29013;49.676;8.606;2023-09-30T00:10:01;18.1;99.9
43414;DHT22;29013;49.676;8.606;2023-09-30T00:15:25;18.1;99.9
43414;DHT22;29013;49.676;8.606;2023-09-30T00:20:50;17.9;99.9
43414;DHT22;29013;49.676;8.606;2023-09-30T00:26:16;17.8;99.9
43414;DHT22;29013;49.676;8.606;2023-09-30T00:31:41;17.6;99.9
43414;DHT22;29013;49.676;8.606;2023-09-30T00:37:06;17.5;99.9
43414;DHT22;29013;49.676;8.606;2023-09-30T00:42:32;17.4;99.9
43414;DHT22;29013;49.676;8.606;2023-09-30T00:47:57;17.5;99.9
43414;DHT22;29013;49.676;8.606;2023-09-30T00:53:22;17.6;99.9
43414;DHT22;29013;49.676;8.606;2023-09-30T00:58:48;17.6;99.9
43414;DHT22;29013;49.676;8.606;2023-09-30T01:04:09;17.7;99.9
43414;DHT22;29013;49.676;8.606;2023-09-30T01:09:32;17.7;99.9
43414;DHT22;29013;49.676;8.606;2023-09-30T01:15:15;17.7;99.9
43414;DHT22;29013;49.676;8.606;2023-09-30T01:20:40;17.8;99.9
43414;DHT22;29013;49.676;8.606;2023-09-30T01:26:07;17.8;99.9
43414;DHT22;29013;49.676;8.606;2023-09-30T01:31:27;17.8;99.9
43414;DHT22;29013;49.676;8.606;2023-09-30T01:36:52;17.9;99.9
43414;DHT22;29013;49.676;8.606;2023-09-30T01:42:18;17.8;99.9
43414;DHT22;29013;49.676;8.606;2023-09-30T01:47:43;17.9;99.9
43414;DHT22;29013;49.676;8.606;2023-09-30T01:53:08;17.9;99.9
43414;DHT22;29013;49.676;8.606;2023-09-30T01:58:34;17.9;99.9
43414;DHT22;29013;49.676;8.606;2023-09-30T02:04:00;17.9;99.9
43414;DHT22;29013;49.676;8.606;2023-09-30T02:09:26;17.9;99.9
43414;DHT22;29013;49.676;8.606;2023-09-30T02:14:52;17.8;99.9
43414;DHT22;29013;49.676;8.606;2023-09-30T02:20:18;17.8;99.9
43414;DHT22;29013;49.676;8.606;2023-09-30T02:25:42;17.8;99.9
43414;DHT22;29013;49.676;8.606;2023-09-30T02:31:07;17.9;99.9
43414;DHT22;29013;49.676;8.606;2023-09-30T02:36:32;17.9;99.9
43414;DHT22;29013;49.676;8.606;2023-09-30T02:41:57;17.9;99.9
43414;DHT22;29013;49.676;8.606;2023-09-30T02:47:23;17.8;99.9
43414;DHT22;29013;49.676;8.606;2023-09-30T02:52:49;17.8;99.9
43414;DHT22;29013;49.676;8.606;2023-09-30T02:58:34;17.8;99.9
43414;DHT22;29013;49.676;8.606;2023-09-30T03:03:57;17.9;99.9
43414;DHT22;29013;49.676;8.606;2023-09-30T03:09:23;17.8;99.9
43414;DHT22;29013;49.676;8.606;2023-09-30T03:14:47;17.7;99.9
43414;DHT22;29013;49.676;8.606;2023-09-30T03:20:12;17.6;99.9
43414;DHT22;29013;49.676;8.606;2023-09-30T03:25:37;17.5;99.9
43414;DHT22;29013;49.676;8.606;2023-09-30T03:31:01;17.3;99.9
43414;DHT22;29013;49.676;8.606;2023-09-30T03:36:26;17.2;99.9
43414;DHT22;29013;49.676;8.606;2023-09-30T03:41:52;17.1;99.9
43414;DHT22;29013;49.676;8.606;2023-09-30T03:47:19;17.0;99.9
43414;DHT22;29013;49.676;8.606;2023-09-30T03:52:39;16.9;99.9
43414;DHT22;29013;49.676;8.606;2023-09-30T03:58:05;16.9;99.9
43414;DHT22;29013;49.676;8.606;2023-09-30T04:03:30;16.8;99.9
43414;DHT22;29013;49.676;8.606;2023-09-30T04:08:54;16.8;99.9
43414;DHT22;29013;49.676;8.606;2023-09-30T04:14:19;16.7;99.9
43414;DHT22;29013;49.676;8.606;2023-09-30T04:19:45;16.7;99.9
43414;DHT22;29013;49.676;8.606;2023-09-30T04:25:08;16.7;99.9
43414;DHT22;29013;49.676;8.606;2023-09-30T04:30:33;16.7;99.9
43414;DHT22;29013;49.676;8.606;2023-09-30T04:35:59;16.7;99.9
43414;DHT22;29013;49.676;8.606;2023-09-30T04:41:18;16.7;99.9
43414;DHT22;29013;49.676;8.606;2023-09-30T04:46:44;16.7;99.9
43414;DHT22;29013;49.676;8.606;2023-09-30T04:52:10;16.7;99.9
43414;DHT22;29013;49.676;8.606;2023-09-30T04:57:57;16.6;99.9
43414;DHT22;29013;49.676;8.606;2023-09-30T05:03:44;16.7;99.9
43414;DHT22;29013;49.676;8.606;2023-09-30T05:09:08;16.7;99.9
43414;DHT22;29013;49.676;8.606;2023-09-30T05:14:27;16.8;99.9
43414;DHT22;29013;49.676;8.606;2023-09-30T05:19:52;16.7;99.9
43414;DHT22;29013;49.676;8.606;2023-09-30T05:25:18;16.7;99.9
43414;DHT22;29013;49.676;8.606;2023-09-30T05:30:42;16.6;99.9
43414;DHT22;29013;49.676;8.606;2023-09-30T05:36:09;16.6;99.9
43414;DHT22;29013;49.676;8.606;2023-09-30T05:41:36;16.4;99.9
43414;DHT22;29013;49.676;8.606;2023-09-30T05:47:19;16.4;99.9
43414;DHT22;29013;49.676;8.606;2023-09-30T05:52:58;16.4;99.9
43414;DHT22;29013;49.676;8.606;2023-09-30T05:58:23;16.6;99.9
43414;DHT22;29013;49.676;8.606;2023-09-30T06:03:49;16.6;99.9
43414;DHT22;29013;49.676;8.606;2023-09-30T06:09:13;16.6;99.9
43414;DHT22;29013;49.676;8.606;2023-09-30T06:14:37;16.6;99.9
43414;DHT22;29013;49.676;8.606;2023-09-30T06:20:06;16.6;99.9
43414;DHT22;29013;49.676;8.606;2023-09-30T06:25:25;16.3;99.9
43414;DHT22;29013;49.676;8.606;2023-09-30T06:30:50;16.2;99.9
43414;DHT22;29013;49.676;8.606;2023-09-30T06:36:16;16.2;99.9
43414;DHT22;29013;49.676;8.606;2023-09-30T06:41:40;16.3;99.9
43414;DHT22;29013;49.676;8.606;2023-09-30T06:47:07;16.5;99.9
43414;DHT22;29013;49.676;8.606;2023-09-30T06:52:33;16.6;99.9
43414;DHT22;29013;49.676;8.606;2023-09-30T06:57:58;16.8;99.9
43414;DHT22;29013;49.676;8.606;2023-09-30T07:03:23;16.9;99.9
43414;DHT22;29013;49.676;8.606;2023-09-30T07:08:49;17.0;99.9
43414;DHT22;29013;49.676;8.606;2023-09-30T07:14:15;17.3;99.9
43414;DHT22;29013;49.676;8.606;2023-09-30T07:19:55;17.4;99.9
43414;DHT22;29013;49.676;8.606;2023-09-30T07:25:16;17.8;99.9
43414;DHT22;29013;49.676;8.606;2023-09-30T07:30:41;17.9;99.2
43414;DHT22;29013;49.676;8.606;2023-09-30T07:36:07;17.9;99.1
43414;DHT22;29013;49.676;8.606;2023-09-30T07:41:35;18.0;99.3
43414;DHT22;29013;49.676;8.606;2023-09-30T07:46:59;18.1;98.4
43414;DHT22;29013;49.676;8.606;2023-09-30T07:52:23;18.0;98.0
43414;DHT22;29013;49.676;8.606;2023-09-30T07:57:46;18.0;98.2
43414;DHT22;29013;49.676;8.606;2023-09-30T08:03:12;18.0;98.6
43414;DHT22;29013;49.676;8.606;2023-09-30T08:08:38;17.8;98.7
43414;DHT22;29013;49.676;8.606;2023-09-30T08:14:03;17.8;99.0
43414;DHT22;29013;49.676;8.606;2023-09-30T08:19:28;17.8;98.9
43414;DHT22;29013;49.676;8.606;2023-09-30T08:24:54;17.8;99.1
43414;DHT22;29013;49.676;8.606;2023-09-30T08:30:17;17.9;99.1
43414;DHT22;29013;49.676;8.606;2023-09-30T08:35:42;18.1;98.6
43414;DHT22;29013;49.676;8.606;2023-09-30T08:41:08;18.3;98.6
43414;DHT22;29013;49.676;8.606;2023-09-30T08:46:34;18.3;98.3
43414;DHT22;29013;49.676;8.606;2023-09-30T08:51:54;18.3;97.8
43414;DHT22;29013;49.676;8.606;2023-09-30T08:57:38;18.2;98.1
43414;DHT22;29013;49.676;8.606;2023-09-30T09:03:08;18.3;97.6
43414;DHT22;29013;49.676;8.606;2023-09-30T09:08:26;18.3;97.0
43414;DHT22;29013;49.676;8.606;2023-09-30T09:13:51;18.1;96.9
43414;DHT22;29013;49.676;8.606;2023-09-30T09:19:19;18.1;97.0
43414;DHT22;29013;49.676;8.606;2023-09-30T09:24:43;18.1;97.1
43414;DHT22;29013;49.676;8.606;2023-09-30T09:30:20;18.2;96.8
43414;DHT22;29013;49.676;8.606;2023-09-30T09:35:40;18.3;96.8
43414;DHT22;29013;49.676;8.606;2023-09-30T09:41:00;18.5;96.1
43414;DHT22;29013;49.676;8.606;2023-09-30T09:46:23;18.5;96.3
43414;DHT22;29013;49.676;8.606;2023-09-30T09:51:47;18.6;96.3
43414;DHT22;29013;49.676;8.606;2023-09-30T09:57:10;18.7;96.3
43414;DHT22;29013;49.676;8.606;2023-09-30T10:02:35;18.7;95.7
43414;DHT22;29013;49.676;8.606;2023-09-30T10:08:01;18.6;95.3
43414;DHT22;29013;49.676;8.606;2023-09-30T10:13:54;18.7;95.4
43414;DHT22;29013;49.676;8.606;2023-09-30T10:19:21;18.9;97.5
43414;DHT22;29013;49.676;8.606;2023-09-30T10:24:40;19.0;95.5
43414;DHT22;29013;49.676;8.606;2023-09-30T10:30:20;19.1;95.0
43414;DHT22;29013;49.676;8.606;2023-09-30T10:35:47;19.2;94.8
43414;DHT22;29013;49.676;8.606;2023-09-30T10:41:07;19.3;95.1
43414;DHT22;29013;49.676;8.606;2023-09-30T10:46:34;19.4;95.9
43414;DHT22;29013;49.676;8.606;2023-09-30T10:52:00;19.5;96.0
43414;DHT22;29013;49.676;8.606;2023-09-30T10:57:30;19.5;93.9
43414;DHT22;29013;49.676;8.606;2023-09-30T11:02:52;19.5;93.8
43414;DHT22;29013;49.676;8.606;2023-09-30T11:08:11;19.6;93.8
43414;DHT22;29013;49.676;8.606;2023-09-30T11:13:37;19.6;92.9
43414;DHT22;29013;49.676;8.606;2023-09-30T11:19:03;19.7;92.8
43414;DHT22;29013;49.676;8.606;2023-09-30T11:24:29;19.8;92.4
43414;DHT22;29013;49.676;8.606;2023-09-30T11:29:54;19.8;92.4
43414;DHT22;29013;49.676;8.606;2023-09-30T11:35:26;19.8;91.8
43414;DHT22;29013;49.676;8.606;2023-09-30T11:41:02;19.9;91.7
43414;DHT22;29013;49.676;8.606;2023-09-30T11:46:53;20.0;91.3
43414;DHT22;29013;49.676;8.606;2023-09-30T11:52:12;20.1;90.9
43414;DHT22;29013;49.676;8.606;2023-09-30T11:57:57;20.0;91.0
43414;DHT22;29013;49.676;8.606;2023-09-30T12:03:18;20.1;91.2
43414;DHT22;29013;49.676;8.606;2023-09-30T12:08:44;20.1;90.6
43414;DHT22;29013;49.676;8.606;2023-09-30T12:14:10;20.1;90.6
43414;DHT22;29013;49.676;8.606;2023-09-30T12:20:07;20.1;91.3
43414;DHT22;29013;49.676;8.606;2023-09-30T12:25:25;20.4;90.1
43414;DHT22;29013;49.676;8.606;2023-09-30T12:31:37;20.3;90.8
43414;DHT22;29013;49.676;8.606;2023-09-30T12:36:59;20.5;90.5
43414;DHT22;29013;49.676;8.606;2023-09-30T12:42:25;20.5;90.5
43414;DHT22;29013;49.676;8.606;2023-09-30T12:47:48;20.5;90.4
43414;DHT22;29013;49.676;8.606;2023-09-30T12:53:14;20.5;90.4
43414;DHT22;29013;49.676;8.606;2023-09-30T12:58:40;20.5;90.4
43414;DHT22;29013;49.676;8.606;2023-09-30T13:04:07;20.6;90.8
43414;DHT22;29013;49.676;8.606;2023-09-30T13:09:26;20.7;90.7
43414;DHT22;29013;49.676;8.606;2023-09-30T13:15:18;20.8;90.1
43414;DHT22;29013;49.676;8.606;2023-09-30T13:20:36;21.0;88.4
43414;DHT22;29013;49.676;8.606;2023-09-30T13:26:03;20.9;89.1
43414;DHT22;29013;49.676;8.606;2023-09-30T13:31:28;20.9;89.3
43414;DHT22;29013;49.676;8.606;2023-09-30T13:36:55;21.0;89.3
43414;DHT22;29013;49.676;8.606;2023-09-30T13:42:22;21.0;89.2
43414;DHT22;29013;49.676;8.606;2023-09-30T13:47:47;21.0;88.7
43414;DHT22;29013;49.676;8.606;2023-09-30T13:53:12;21.0;89.3
43414;DHT22;29013;49.676;8.606;2023-09-30T13:58:38;21.0;89.9
43414;DHT22;29013;49.676;8.606;2023-09-30T14:04:04;21.0;88.6
43414;DHT22;29013;49.676;8.606;2023-09-30T14:09:27;21.1;89.1
43414;DHT22;29013;49.676;8.606;2023-09-30T14:14:52;21.2;88.1
43414;DHT22;29013;49.676;8.606;2023-09-30T14:20:19;21.2;88.2
43414;DHT22;29013;49.676;8.606;2023-09-30T14:25:38;21.2;87.8
43414;DHT22;29013;49.676;8.606;2023-09-30T14:31:06;21.2;88.1
43414;DHT22;29013;49.676;8.606;2023-09-30T14:36:34;21.2;88.7
43414;DHT22;29013;49.676;8.606;2023-09-30T14:41:57;21.2;87.6
43414;DHT22;29013;49.676;8.606;2023-09-30T14:47:23;21.1;87.0
43414;DHT22;29013;49.676;8.606;2023-09-30T14:52:49;21.1;87.0
43414;DHT22;29013;49.676;8.606;2023-09-30T14:58:15;20.9;88.5
43414;DHT22;29013;49.676;8.606;2023-09-30T15:03:40;20.8;88.4
43414;DHT22;29013;49.676;8.606;2023-09-30T15:09:04;20.7;88.9
43414;DHT22;29013;49.676;8.606;2023-09-30T15:14:29;20.7;88.6
43414;DHT22;29013;49.676;8.606;2023-09-30T15:19:48;20.6;88.2
43414;DHT22;29013;49.676;8.606;2023-09-30T15:25:14;20.5;87.4
43414;DHT22;29013;49.676;8.606;2023-09-30T15:30:40;20.5;89.0
43414;DHT22;29013;49.676;8.606;2023-09-30T15:36:14;20.5;88.2
43414;DHT22;29013;49.676;8.606;2023-09-30T15:41:37;20.5;88.6
43414;DHT22;29013;49.676;8.606;2023-09-30T15:47:04;20.5;88.5
43414;DHT22;29013;49.676;8.606;2023-09-30T15:52:45;20.4;90.0
43414;DHT22;29013;49.676;8.606;2023-09-30T15:58:10;20.4;88.9
43414;DHT22;29013;49.676;8.606;2023-09-30T16:03:36;20.3;89.7
43414;DHT22;29013;49.676;8.606;2023-09-30T16:08:58;20.2;90.2
43414;DHT22;29013;49.676;8.606;2023-09-30T16:14:22;20.1;90.1
43414;DHT22;29013;49.676;8.606;2023-09-30T16:19:42;20.0;90.9
43414;DHT22;29013;49.676;8.606;2023-09-30T16:25:01;19.9;91.1
43414;DHT22;29013;49.676;8.606;2023-09-30T16:30:24;19.7;91.7
43414;DHT22;29013;49.676;8.606;2023-09-30T16:35:50;19.6;92.2
43414;DHT22;29013;49.676;8.606;2023-09-30T16:41:15;19.5;92.4
43414;DHT22;29013;49.676;8.606;2023-09-30T16:46:39;19.3;92.8
43414;DHT22;29013;49.676;8.606;2023-09-30T16:51:59;19.2;93.1
43414;DHT22;29013;49.676;8.606;2023-09-30T16:57:41;18.9;93.9
43414;DHT22;29013;49.676;8.606;2023-09-30T17:03:06;18.8;93.9
43414;DHT22;29013;49.676;8.606;2023-09-30T17:08:31;18.6;94.0
43414;DHT22;29013;49.676;8.606;2023-09-30T17:13:57;18.5;94.2
43414;DHT22;29013;49.676;8.606;2023-09-30T17:19:22;18.4;94.4
43414;DHT22;29013;49.676;8.606;2023-09-30T17:24:47;18.3;94.9
43414;DHT22;29013;49.676;8.606;2023-09-30T17:30:15;18.1;94.9
43414;DHT22;29013;49.676;8.606;2023-09-30T17:35:37;18.0;95.1
43414;DHT22;29013;49.676;8.606;2023-09-30T17:41:03;17.9;95.5
43414;DHT22;29013;49.676;8.606;2023-09-30T17:46:22;17.8;95.6
43414;DHT22;29013;49.676;8.606;2023-09-30T17:51:47;17.7;95.7
43414;DHT22;29013;49.676;8.606;2023-09-30T17:57:13;17.5;95.8
43414;DHT22;29013;49.676;8.606;2023-09-30T18:02:39;17.5;95.8
43414;DHT22;29013;49.676;8.606;2023-09-30T18:08:06;17.4;95.8
43414;DHT22;29013;49.676;8.606;2023-09-30T18:13:25;17.4;95.9
43414;DHT22;29013;49.676;8.606;2023-09-30T18:18:51;17.3;96.1
43414;DHT22;29013;49.676;8.606;2023-09-30T18:24:17;17.1;96.0
43414;DHT22;29013;49.676;8.606;2023-09-30T18:29:44;17.1;96.0
43414;DHT22;29013;49.676;8.606;2023-09-30T18:35:11;17.0;96.0
43414;DHT22;29013;49.676;8.606;2023-09-30T18:40:36;16.9;96.1
43414;DHT22;29013;49.676;8.606;2023-09-30T18:46:06;16.8;96.3
43414;DHT22;29013;49.676;8.606;2023-09-30T18:51:24;16.7;96.2
43414;DHT22;29013;49.676;8.606;2023-09-30T18:56:49;16.6;96.3
43414;DHT22;29013;49.676;8.606;2023-09-30T19:02:13;16.5;96.4
43414;DHT22;29013;49.676;8.606;2023-09-30T19:07:39;16.4;96.5
43414;DHT22;29013;49.676;8.606;2023-09-30T19:12:57;16.3;96.6
43414;DHT22;29013;49.676;8.606;2023-09-30T19:18:23;16.2;96.7
43414;DHT22;29013;49.676;8.606;2023-09-30T19:23:48;16.2;96.7
43414;DHT22;29013;49.676;8.606;2023-09-30T19:29:14;16.1;96.6
43414;DHT22;29013;49.676;8.606;2023-09-30T19:34:33;16.0;96.6
43414;DHT22;29013;49.676;8.606;2023-09-30T19:39:58;16.0;96.7
43414;DHT22;29013;49.676;8.606;2023-09-30T19:45:22;15.9;96.7
43414;DHT22;29013;49.676;8.606;2023-09-30T19:50:44;15.9;96.8
43414;DHT22;29013;49.676;8.606;2023-09-30T19:56:10;15.8;96.7
43414;DHT22;29013;49.676;8.606;2023-09-30T20:01:34;15.8;96.8
43414;DHT22;29013;49.676;8.606;2023-09-30T20:07:00;15.7;96.9
43414;DHT22;29013;49.676;8.606;2023-09-30T20:12:26;15.7;96.8
43414;DHT22;29013;49.676;8.606;2023-09-30T20:17:51;15.7;96.8
43414;DHT22;29013;49.676;8.606;2023-09-30T20:23:38;15.5;97.0
43414;DHT22;29013;49.676;8.606;2023-09-30T20:29:02;15.6;96.7
43414;DHT22;29013;49.676;8.606;2023-09-30T20:34:43;15.5;97.0
43414;DHT22;29013;49.676;8.606;2023-09-30T20:40:12;15.6;96.8
43414;DHT22;29013;49.676;8.606;2023-09-30T20:45:36;15.5;96.8
43414;DHT22;29013;49.676;8.606;2023-09-30T20:51:03;15.4;96.8
43414;DHT22;29013;49.676;8.606;2023-09-30T20:56:22;15.3;96.9
43414;DHT22;29013;49.676;8.606;2023-09-30T21:01:44;15.2;97.0
43414;DHT22;29013;49.676;8.606;2023-09-30T21:07:10;15.2;97.1
43414;DHT22;29013;49.676;8.606;2023-09-30T21:12:35;15.1;97.3
43414;DHT22;29013;49.676;8.606;2023-09-30T21:18:16;15.0;97.8
43414;DHT22;29013;49.676;8.606;2023-09-30T21:23:59;15.0;97.8
43414;DHT22;29013;49.676;8.606;2023-09-30T21:29:23;15.0;97.4
43414;DHT22;29013;49.676;8.606;2023-09-30T21:34:46;15.0;97.3
43414;DHT22;29013;49.676;8.606;2023-09-30T21:40:14;14.9;97.4
43414;DHT22;29013;49.676;8.606;2023-09-30T21:45:33;14.9;97.6
43414;DHT22;29013;49.676;8.606;2023-09-30T21:50:59;14.7;97.9
43414;DHT22;29013;49.676;8.606;2023-09-30T21:56:24;14.6;98.2
43414;DHT22;29013;49.676;8.606;2023-09-30T22:01:50;14.6;98.2
43414;DHT22;29013;49.676;8.606;2023-09-30T22:07:13;14.5;98.4
43414;DHT22;29013;49.676;8.606;2023-09-30T22:12:40;14.5;98.2
43414;DHT22;29013;49.676;8.606;2023-09-30T22:18:00;14.5;98.3
43414;DHT22;29013;49.676;8.606;2023-09-30T22:23:24;14.5;98.3
43414;DHT22;29013;49.676;8.606;2023-09-30T22:28:50;14.4;98.3
43414;DHT22;29013;49.676;8.606;2023-09-30T22:34:15;14.4;98.3
43414;DHT22;29013;49.676;8.606;2023-09-30T22:39:56;14.3;98.6
43414;DHT22;29013;49.676;8.606;2023-09-30T22:45:20;14.4;98.4
43414;DHT22;29013;49.676;8.606;2023-09-30T22:50:45;14.2;98.4
43414;DHT22;29013;49.676;8.606;2023-09-30T22:56:14;14.1;98.6
43414;DHT22;29013;49.676;8.606;2023-09-30T23:01:36;14.1;98.9
43414;DHT22;29013;49.676;8.606;2023-09-30T23:07:02;14.0;99.0
43414;DHT22;29013;49.676;8.606;2023-09-30T23:12:26;14.0;99.1
43414;DHT22;29013;49.676;8.606;2023-09-30T23:17:51;13.9;99.1
43414;DHT22;29013;49.676;8.606;2023-09-30T23:23:17;13.9;99.1
43414;DHT22;29013;49.676;8.606;2023-09-30T23:28:41;13.8;99.1
43414;DHT22;29013;49.676;8.606;2023-09-30T23:34:23;13.7;99.5
43414;DHT22;29013;49.676;8.606;2023-09-30T23:39:47;13.9;99.3
43414;DHT22;29013;49.676;8.606;2023-09-30T23:45:13;13.8;99.4
43414;DHT22;29013;49.676;8.606;2023-09-30T23:50:38;13.7;99.4
43414;DHT22;29013;49.676;8.606;2023-09-30T23:56:00;13.7;99.5
